sensor_id;sensor_type;location;lat;lon;timestamp;P1;durP1;ratioP1;P2;durP2;ratioP2
85154;SDS011;75523;53.218;6.564;2024-01-27T00:01:42;32.17;;;23.27;;
85154;SDS011;75523;53.218;6.564;2024-01-27T00:04:08;37.53;;;26.17;;
85154;SDS011;75523;53.218;6.564;2024-01-27T00:06:34;35.37;;;25.30;;
85154;SDS011;75523;53.218;6.564;2024-01-27T00:08:59;39.43;;;25.90;;
85154;SDS011;75523;53.218;6.564;2024-01-27T00:11:25;34.30;;;25.97;;
85154;SDS011;75523;53.218;6.564;2024-01-27T00:13:50;33.90;;;23.87;;
85154;SDS011;75523;53.218;6.564;2024-01-27T00:16:16;36.50;;;25.50;;
85154;SDS011;75523;53.218;6.564;2024-01-27T00:18:41;32.67;;;25.70;;
85154;SDS011;75523;53.218;6.564;2024-01-27T00:21:07;41.77;;;27.37;;
85154;SDS011;75523;53.218;6.564;2024-01-27T00:23:32;34.33;;;26.67;;
85154;SDS011;75523;53.218;6.564;2024-01-27T00:25:59;31.33;;;24.60;;
85154;SDS011;75523;53.218;6.564;2024-01-27T00:28:27;34.45;;;27.27;;
85154;SDS011;75523;53.218;6.564;2024-01-27T00:30:53;35.23;;;26.10;;
85154;SDS011;75523;53.218;6.564;2024-01-27T00:33:19;37.83;;;26.33;;
85154;SDS011;75523;53.218;6.564;2024-01-27T00:35:44;35.60;;;26.47;;
85154;SDS011;75523;53.218;6.564;2024-01-27T00:38:09;35.87;;;26.43;;
85154;SDS011;75523;53.218;6.564;2024-01-27T00:40:36;35.80;;;24.60;;
85154;SDS011;75523;53.218;6.564;2024-01-27T00:43:04;36.80;;;25.13;;
85154;SDS011;75523;53.218;6.564;2024-01-27T00:45:30;36.53;;;25.98;;
85154;SDS011;75523;53.218;6.564;2024-01-27T00:47:56;34.37;;;25.63;;
85154;SDS011;75523;53.218;6.564;2024-01-27T00:50:21;36.47;;;27.10;;
85154;SDS011;75523;53.218;6.564;2024-01-27T00:52:47;31.93;;;25.27;;
85154;SDS011;75523;53.218;6.564;2024-01-27T00:55:12;34.50;;;25.97;;
85154;SDS011;75523;53.218;6.564;2024-01-27T00:57:38;38.70;;;26.73;;
85154;SDS011;75523;53.218;6.564;2024-01-27T01:00:04;42.47;;;27.63;;
85154;SDS011;75523;53.218;6.564;2024-01-27T01:02:31;35.23;;;25.73;;
85154;SDS011;75523;53.218;6.564;2024-01-27T01:04:57;34.73;;;24.87;;
85154;SDS011;75523;53.218;6.564;2024-01-27T01:07:22;36.43;;;26.73;;
85154;SDS011;75523;53.218;6.564;2024-01-27T01:09:48;35.17;;;26.00;;
85154;SDS011;75523;53.218;6.564;2024-01-27T01:12:13;36.17;;;25.60;;
85154;SDS011;75523;53.218;6.564;2024-01-27T01:14:41;38.30;;;26.93;;
85154;SDS011;75523;53.218;6.564;2024-01-27T01:17:07;34.80;;;25.57;;
85154;SDS011;75523;53.218;6.564;2024-01-27T01:19:32;33.57;;;26.20;;
85154;SDS011;75523;53.218;6.564;2024-01-27T01:21:57;32.93;;;24.13;;
85154;SDS011;75523;53.218;6.564;2024-01-27T01:24:23;34.97;;;25.77;;
85154;SDS011;75523;53.218;6.564;2024-01-27T01:26:48;34.10;;;27.37;;
85154;SDS011;75523;53.218;6.564;2024-01-27T01:29:14;35.07;;;26.53;;
85154;SDS011;75523;53.218;6.564;2024-01-27T01:31:41;35.37;;;25.70;;
85154;SDS011;75523;53.218;6.564;2024-01-27T01:34:09;33.83;;;25.33;;
85154;SDS011;75523;53.218;6.564;2024-01-27T01:36:35;32.43;;;25.70;;
85154;SDS011;75523;53.218;6.564;2024-01-27T01:39:00;31.10;;;26.90;;
85154;SDS011;75523;53.218;6.564;2024-01-27T01:41:26;34.17;;;25.97;;
85154;SDS011;75523;53.218;6.564;2024-01-27T01:43:51;38.70;;;24.63;;
85154;SDS011;75523;53.218;6.564;2024-01-27T01:46:18;30.57;;;26.10;;
85154;SDS011;75523;53.218;6.564;2024-01-27T01:48:44;39.30;;;25.43;;
85154;SDS011;75523;53.218;6.564;2024-01-27T01:51:09;35.97;;;25.77;;
85154;SDS011;75523;53.218;6.564;2024-01-27T01:53:35;38.20;;;27.13;;
85154;SDS011;75523;53.218;6.564;2024-01-27T01:56:01;33.10;;;25.03;;
85154;SDS011;75523;53.218;6.564;2024-01-27T01:58:27;32.77;;;25.93;;
85154;SDS011;75523;53.218;6.564;2024-01-27T02:00:59;36.03;;;25.90;;
85154;SDS011;75523;53.218;6.564;2024-01-27T02:03:25;33.53;;;24.80;;
85154;SDS011;75523;53.218;6.564;2024-01-27T02:05:50;32.17;;;24.07;;
85154;SDS011;75523;53.218;6.564;2024-01-27T02:08:16;33.67;;;25.03;;
85154;SDS011;75523;53.218;6.564;2024-01-27T02:10:42;29.70;;;26.23;;
85154;SDS011;75523;53.218;6.564;2024-01-27T02:13:17;32.53;;;25.63;;
85154;SDS011;75523;53.218;6.564;2024-01-27T02:15:47;37.47;;;26.17;;
85154;SDS011;75523;53.218;6.564;2024-01-27T02:18:13;33.03;;;25.33;;
85154;SDS011;75523;53.218;6.564;2024-01-27T02:20:39;33.20;;;25.07;;
85154;SDS011;75523;53.218;6.564;2024-01-27T02:23:05;35.43;;;26.47;;
85154;SDS011;75523;53.218;6.564;2024-01-27T02:25:31;29.60;;;25.50;;
85154;SDS011;75523;53.218;6.564;2024-01-27T02:27:57;32.93;;;25.73;;
85154;SDS011;75523;53.218;6.564;2024-01-27T02:30:24;35.27;;;24.80;;
85154;SDS011;75523;53.218;6.564;2024-01-27T02:32:49;39.10;;;27.23;;
85154;SDS011;75523;53.218;6.564;2024-01-27T02:35:15;32.73;;;25.47;;
85154;SDS011;75523;53.218;6.564;2024-01-27T02:37:41;29.37;;;25.87;;
85154;SDS011;75523;53.218;6.564;2024-01-27T02:40:07;32.33;;;24.03;;
85154;SDS011;75523;53.218;6.564;2024-01-27T02:42:34;34.63;;;26.80;;
85154;SDS011;75523;53.218;6.564;2024-01-27T02:44:59;33.07;;;24.93;;
85154;SDS011;75523;53.218;6.564;2024-01-27T02:47:25;31.53;;;26.57;;
85154;SDS011;75523;53.218;6.564;2024-01-27T02:49:50;33.30;;;26.97;;
85154;SDS011;75523;53.218;6.564;2024-01-27T02:52:16;33.17;;;24.27;;
85154;SDS011;75523;53.218;6.564;2024-01-27T02:54:41;33.50;;;26.13;;
85154;SDS011;75523;53.218;6.564;2024-01-27T02:57:07;32.37;;;26.33;;
85154;SDS011;75523;53.218;6.564;2024-01-27T02:59:32;33.67;;;24.50;;
85154;SDS011;75523;53.218;6.564;2024-01-27T03:01:58;34.07;;;25.00;;
85154;SDS011;75523;53.218;6.564;2024-01-27T03:04:23;29.53;;;24.37;;
85154;SDS011;75523;53.218;6.564;2024-01-27T03:06:49;34.43;;;27.20;;
85154;SDS011;75523;53.218;6.564;2024-01-27T03:09:14;33.83;;;26.43;;
85154;SDS011;75523;53.218;6.564;2024-01-27T03:11:39;35.17;;;27.40;;
85154;SDS011;75523;53.218;6.564;2024-01-27T03:14:05;33.70;;;25.90;;
85154;SDS011;75523;53.218;6.564;2024-01-27T03:16:30;32.67;;;26.77;;
85154;SDS011;75523;53.218;6.564;2024-01-27T03:18:56;30.13;;;24.73;;
85154;SDS011;75523;53.218;6.564;2024-01-27T03:21:22;33.23;;;26.57;;
85154;SDS011;75523;53.218;6.564;2024-01-27T03:23:47;31.00;;;25.50;;
85154;SDS011;75523;53.218;6.564;2024-01-27T03:26:12;33.67;;;26.13;;
85154;SDS011;75523;53.218;6.564;2024-01-27T03:28:38;30.60;;;25.00;;
85154;SDS011;75523;53.218;6.564;2024-01-27T03:31:03;34.00;;;26.27;;
85154;SDS011;75523;53.218;6.564;2024-01-27T03:33:29;31.67;;;26.27;;
85154;SDS011;75523;53.218;6.564;2024-01-27T03:35:55;34.53;;;25.67;;
85154;SDS011;75523;53.218;6.564;2024-01-27T03:38:21;33.43;;;26.60;;
85154;SDS011;75523;53.218;6.564;2024-01-27T03:40:46;37.13;;;25.33;;
85154;SDS011;75523;53.218;6.564;2024-01-27T03:43:12;29.37;;;23.97;;
85154;SDS011;75523;53.218;6.564;2024-01-27T03:45:37;31.37;;;25.87;;
85154;SDS011;75523;53.218;6.564;2024-01-27T03:48:03;32.73;;;25.00;;
85154;SDS011;75523;53.218;6.564;2024-01-27T03:50:29;32.53;;;26.83;;
85154;SDS011;75523;53.218;6.564;2024-01-27T03:52:54;40.20;;;26.30;;
85154;SDS011;75523;53.218;6.564;2024-01-27T03:55:20;30.47;;;26.10;;
85154;SDS011;75523;53.218;6.564;2024-01-27T03:57:46;34.97;;;23.37;;
85154;SDS011;75523;53.218;6.564;2024-01-27T04:00:11;33.30;;;26.03;;
85154;SDS011;75523;53.218;6.564;2024-01-27T04:02:37;35.10;;;25.87;;
85154;SDS011;75523;53.218;6.564;2024-01-27T04:05:04;32.87;;;26.40;;
85154;SDS011;75523;53.218;6.564;2024-01-27T04:07:30;29.93;;;25.17;;
85154;SDS011;75523;53.218;6.564;2024-01-27T04:09:55;32.40;;;27.20;;
85154;SDS011;75523;53.218;6.564;2024-01-27T04:12:21;31.73;;;25.97;;
85154;SDS011;75523;53.218;6.564;2024-01-27T04:14:46;30.70;;;27.43;;
85154;SDS011;75523;53.218;6.564;2024-01-27T04:17:12;32.57;;;26.03;;
85154;SDS011;75523;53.218;6.564;2024-01-27T04:19:38;30.83;;;26.20;;
85154;SDS011;75523;53.218;6.564;2024-01-27T04:22:03;32.40;;;24.83;;
85154;SDS011;75523;53.218;6.564;2024-01-27T04:24:29;36.80;;;27.73;;
85154;SDS011;75523;53.218;6.564;2024-01-27T04:26:54;31.67;;;24.97;;
85154;SDS011;75523;53.218;6.564;2024-01-27T04:29:20;31.60;;;25.60;;
85154;SDS011;75523;53.218;6.564;2024-01-27T04:31:45;31.03;;;25.17;;
85154;SDS011;75523;53.218;6.564;2024-01-27T04:34:10;33.57;;;26.60;;
85154;SDS011;75523;53.218;6.564;2024-01-27T04:36:36;30.40;;;27.10;;
85154;SDS011;75523;53.218;6.564;2024-01-27T04:39:02;35.57;;;25.00;;
85154;SDS011;75523;53.218;6.564;2024-01-27T04:41:27;30.77;;;27.43;;
85154;SDS011;75523;53.218;6.564;2024-01-27T04:43:53;30.77;;;25.37;;
85154;SDS011;75523;53.218;6.564;2024-01-27T04:46:21;31.75;;;24.95;;
85154;SDS011;75523;53.218;6.564;2024-01-27T04:48:47;27.17;;;24.23;;
85154;SDS011;75523;53.218;6.564;2024-01-27T04:51:13;34.03;;;27.13;;
85154;SDS011;75523;53.218;6.564;2024-01-27T04:53:39;31.03;;;24.57;;
85154;SDS011;75523;53.218;6.564;2024-01-27T04:56:04;32.80;;;25.03;;
85154;SDS011;75523;53.218;6.564;2024-01-27T04:58:33;32.42;;;24.08;;
85154;SDS011;75523;53.218;6.564;2024-01-27T05:01:02;33.80;;;26.70;;
85154;SDS011;75523;53.218;6.564;2024-01-27T05:03:28;32.97;;;25.80;;
85154;SDS011;75523;53.218;6.564;2024-01-27T05:05:53;31.80;;;28.03;;
85154;SDS011;75523;53.218;6.564;2024-01-27T05:08:18;34.00;;;26.40;;
85154;SDS011;75523;53.218;6.564;2024-01-27T05:10:45;30.43;;;26.50;;
85154;SDS011;75523;53.218;6.564;2024-01-27T05:13:11;35.10;;;25.97;;
85154;SDS011;75523;53.218;6.564;2024-01-27T05:15:36;34.10;;;26.27;;
85154;SDS011;75523;53.218;6.564;2024-01-27T05:18:02;37.37;;;26.60;;
85154;SDS011;75523;53.218;6.564;2024-01-27T05:20:27;30.17;;;26.60;;
85154;SDS011;75523;53.218;6.564;2024-01-27T05:22:53;32.57;;;26.83;;
85154;SDS011;75523;53.218;6.564;2024-01-27T05:25:18;33.80;;;26.60;;
85154;SDS011;75523;53.218;6.564;2024-01-27T05:27:44;31.20;;;25.97;;
85154;SDS011;75523;53.218;6.564;2024-01-27T05:30:09;32.37;;;25.47;;
85154;SDS011;75523;53.218;6.564;2024-01-27T05:32:35;31.83;;;23.43;;
85154;SDS011;75523;53.218;6.564;2024-01-27T05:35:01;27.17;;;24.27;;
85154;SDS011;75523;53.218;6.564;2024-01-27T05:37:26;29.87;;;24.17;;
85154;SDS011;75523;53.218;6.564;2024-01-27T05:39:51;30.93;;;24.67;;
85154;SDS011;75523;53.218;6.564;2024-01-27T05:42:17;31.20;;;25.80;;
85154;SDS011;75523;53.218;6.564;2024-01-27T05:44:42;33.97;;;25.63;;
85154;SDS011;75523;53.218;6.564;2024-01-27T05:47:08;29.63;;;26.47;;
85154;SDS011;75523;53.218;6.564;2024-01-27T05:49:35;29.23;;;25.93;;
85154;SDS011;75523;53.218;6.564;2024-01-27T05:52:01;33.77;;;24.60;;
85154;SDS011;75523;53.218;6.564;2024-01-27T05:54:27;28.00;;;25.00;;
85154;SDS011;75523;53.218;6.564;2024-01-27T05:56:53;29.80;;;26.20;;
85154;SDS011;75523;53.218;6.564;2024-01-27T05:59:18;35.53;;;26.80;;
85154;SDS011;75523;53.218;6.564;2024-01-27T06:01:44;33.17;;;26.37;;
85154;SDS011;75523;53.218;6.564;2024-01-27T06:04:10;30.97;;;26.43;;
85154;SDS011;75523;53.218;6.564;2024-01-27T06:06:40;30.73;;;26.23;;
85154;SDS011;75523;53.218;6.564;2024-01-27T06:09:07;39.23;;;26.40;;
85154;SDS011;75523;53.218;6.564;2024-01-27T06:11:36;33.10;;;26.23;;
85154;SDS011;75523;53.218;6.564;2024-01-27T06:14:03;32.77;;;27.30;;
85154;SDS011;75523;53.218;6.564;2024-01-27T06:16:29;31.73;;;26.63;;
85154;SDS011;75523;53.218;6.564;2024-01-27T06:18:54;29.10;;;25.30;;
85154;SDS011;75523;53.218;6.564;2024-01-27T06:21:20;38.87;;;26.87;;
85154;SDS011;75523;53.218;6.564;2024-01-27T06:23:46;31.43;;;26.17;;
85154;SDS011;75523;53.218;6.564;2024-01-27T06:26:12;31.30;;;25.33;;
85154;SDS011;75523;53.218;6.564;2024-01-27T06:28:38;32.87;;;26.70;;
85154;SDS011;75523;53.218;6.564;2024-01-27T06:31:04;31.50;;;26.00;;
85154;SDS011;75523;53.218;6.564;2024-01-27T06:33:30;33.37;;;26.07;;
85154;SDS011;75523;53.218;6.564;2024-01-27T06:35:56;30.27;;;25.47;;
85154;SDS011;75523;53.218;6.564;2024-01-27T06:38:21;33.57;;;25.60;;
85154;SDS011;75523;53.218;6.564;2024-01-27T06:40:46;29.87;;;25.57;;
85154;SDS011;75523;53.218;6.564;2024-01-27T06:43:12;35.70;;;26.27;;
85154;SDS011;75523;53.218;6.564;2024-01-27T06:45:38;32.60;;;26.10;;
85154;SDS011;75523;53.218;6.564;2024-01-27T06:48:04;29.27;;;26.00;;
85154;SDS011;75523;53.218;6.564;2024-01-27T06:50:31;28.77;;;24.97;;
85154;SDS011;75523;53.218;6.564;2024-01-27T06:52:56;33.60;;;24.80;;
85154;SDS011;75523;53.218;6.564;2024-01-27T06:55:21;32.47;;;26.37;;
85154;SDS011;75523;53.218;6.564;2024-01-27T06:57:47;31.53;;;26.33;;
85154;SDS011;75523;53.218;6.564;2024-01-27T07:00:13;36.23;;;26.33;;
85154;SDS011;75523;53.218;6.564;2024-01-27T07:05:10;29.20;;;25.73;;
85154;SDS011;75523;53.218;6.564;2024-01-27T07:07:35;32.60;;;27.00;;
85154;SDS011;75523;53.218;6.564;2024-01-27T07:10:01;34.97;;;26.67;;
85154;SDS011;75523;53.218;6.564;2024-01-27T07:12:27;34.73;;;26.20;;
85154;SDS011;75523;53.218;6.564;2024-01-27T07:14:53;33.00;;;27.67;;
85154;SDS011;75523;53.218;6.564;2024-01-27T07:17:20;30.03;;;26.37;;
85154;SDS011;75523;53.218;6.564;2024-01-27T07:19:45;34.43;;;26.43;;
85154;SDS011;75523;53.218;6.564;2024-01-27T07:22:11;30.63;;;27.13;;
85154;SDS011;75523;53.218;6.564;2024-01-27T07:24:36;31.83;;;25.40;;
85154;SDS011;75523;53.218;6.564;2024-01-27T07:27:02;33.17;;;25.63;;
85154;SDS011;75523;53.218;6.564;2024-01-27T07:29:29;30.30;;;27.07;;
85154;SDS011;75523;53.218;6.564;2024-01-27T07:31:54;36.20;;;26.13;;
85154;SDS011;75523;53.218;6.564;2024-01-27T07:34:20;39.97;;;27.37;;
85154;SDS011;75523;53.218;6.564;2024-01-27T07:36:45;31.93;;;26.30;;
85154;SDS011;75523;53.218;6.564;2024-01-27T07:39:13;38.27;;;27.00;;
85154;SDS011;75523;53.218;6.564;2024-01-27T07:41:38;35.43;;;28.60;;
85154;SDS011;75523;53.218;6.564;2024-01-27T07:44:10;33.63;;;27.50;;
85154;SDS011;75523;53.218;6.564;2024-01-27T07:46:39;31.40;;;27.60;;
85154;SDS011;75523;53.218;6.564;2024-01-27T07:49:05;32.07;;;27.53;;
85154;SDS011;75523;53.218;6.564;2024-01-27T07:51:34;33.03;;;27.23;;
85154;SDS011;75523;53.218;6.564;2024-01-27T07:54:00;37.43;;;25.13;;
85154;SDS011;75523;53.218;6.564;2024-01-27T07:58:59;33.13;;;26.50;;
85154;SDS011;75523;53.218;6.564;2024-01-27T08:01:53;34.07;;;26.57;;
85154;SDS011;75523;53.218;6.564;2024-01-27T08:04:19;33.63;;;25.27;;
85154;SDS011;75523;53.218;6.564;2024-01-27T08:06:54;34.37;;;28.20;;
85154;SDS011;75523;53.218;6.564;2024-01-27T08:09:20;38.27;;;28.30;;
85154;SDS011;75523;53.218;6.564;2024-01-27T08:11:46;35.10;;;25.33;;
85154;SDS011;75523;53.218;6.564;2024-01-27T08:14:16;37.10;;;27.13;;
85154;SDS011;75523;53.218;6.564;2024-01-27T08:16:42;31.20;;;26.27;;
85154;SDS011;75523;53.218;6.564;2024-01-27T08:19:08;35.97;;;27.60;;
85154;SDS011;75523;53.218;6.564;2024-01-27T08:21:33;35.40;;;26.77;;
85154;SDS011;75523;53.218;6.564;2024-01-27T08:24:02;33.28;;;28.55;;
85154;SDS011;75523;53.218;6.564;2024-01-27T08:26:27;30.37;;;26.50;;
85154;SDS011;75523;53.218;6.564;2024-01-27T08:28:53;33.43;;;27.60;;
85154;SDS011;75523;53.218;6.564;2024-01-27T08:31:21;36.25;;;27.40;;
85154;SDS011;75523;53.218;6.564;2024-01-27T08:33:46;37.10;;;27.23;;
85154;SDS011;75523;53.218;6.564;2024-01-27T08:36:15;41.10;;;25.30;;
85154;SDS011;75523;53.218;6.564;2024-01-27T08:38:40;30.50;;;27.20;;
85154;SDS011;75523;53.218;6.564;2024-01-27T08:41:06;35.20;;;27.40;;
85154;SDS011;75523;53.218;6.564;2024-01-27T08:43:31;34.60;;;27.13;;
85154;SDS011;75523;53.218;6.564;2024-01-27T08:45:57;35.20;;;26.40;;
85154;SDS011;75523;53.218;6.564;2024-01-27T08:48:25;39.17;;;28.00;;
85154;SDS011;75523;53.218;6.564;2024-01-27T08:50:51;29.97;;;26.23;;
85154;SDS011;75523;53.218;6.564;2024-01-27T08:53:16;33.77;;;27.10;;
85154;SDS011;75523;53.218;6.564;2024-01-27T08:55:42;34.67;;;26.47;;
85154;SDS011;75523;53.218;6.564;2024-01-27T08:58:07;34.70;;;25.37;;
85154;SDS011;75523;53.218;6.564;2024-01-27T09:00:33;33.30;;;26.07;;
85154;SDS011;75523;53.218;6.564;2024-01-27T09:02:58;31.00;;;25.40;;
85154;SDS011;75523;53.218;6.564;2024-01-27T09:05:24;33.50;;;27.93;;
85154;SDS011;75523;53.218;6.564;2024-01-27T09:07:49;36.40;;;26.80;;
85154;SDS011;75523;53.218;6.564;2024-01-27T09:10:16;33.30;;;27.53;;
85154;SDS011;75523;53.218;6.564;2024-01-27T09:12:42;30.40;;;25.37;;
85154;SDS011;75523;53.218;6.564;2024-01-27T09:15:08;31.47;;;26.33;;
85154;SDS011;75523;53.218;6.564;2024-01-27T09:17:34;30.53;;;27.20;;
85154;SDS011;75523;53.218;6.564;2024-01-27T09:19:59;38.73;;;26.93;;
85154;SDS011;75523;53.218;6.564;2024-01-27T09:22:25;30.93;;;26.17;;
85154;SDS011;75523;53.218;6.564;2024-01-27T09:24:51;32.67;;;27.63;;
85154;SDS011;75523;53.218;6.564;2024-01-27T09:27:16;35.80;;;26.67;;
85154;SDS011;75523;53.218;6.564;2024-01-27T09:29:42;32.90;;;26.47;;
85154;SDS011;75523;53.218;6.564;2024-01-27T09:32:07;32.10;;;28.70;;
85154;SDS011;75523;53.218;6.564;2024-01-27T09:34:33;33.57;;;25.73;;
85154;SDS011;75523;53.218;6.564;2024-01-27T09:36:59;30.93;;;25.87;;
85154;SDS011;75523;53.218;6.564;2024-01-27T09:39:26;30.10;;;26.23;;
85154;SDS011;75523;53.218;6.564;2024-01-27T09:41:51;33.80;;;27.50;;
85154;SDS011;75523;53.218;6.564;2024-01-27T09:44:18;30.63;;;25.80;;
85154;SDS011;75523;53.218;6.564;2024-01-27T09:46:46;32.50;;;25.70;;
85154;SDS011;75523;53.218;6.564;2024-01-27T09:49:15;32.03;;;26.67;;
85154;SDS011;75523;53.218;6.564;2024-01-27T09:51:41;34.03;;;26.53;;
85154;SDS011;75523;53.218;6.564;2024-01-27T09:54:07;30.67;;;27.43;;
85154;SDS011;75523;53.218;6.564;2024-01-27T09:56:33;33.10;;;24.23;;
85154;SDS011;75523;53.218;6.564;2024-01-27T09:58:59;29.47;;;25.47;;
85154;SDS011;75523;53.218;6.564;2024-01-27T10:01:25;30.37;;;26.83;;
85154;SDS011;75523;53.218;6.564;2024-01-27T10:03:53;30.98;;;25.25;;
85154;SDS011;75523;53.218;6.564;2024-01-27T10:06:20;32.70;;;25.57;;
85154;SDS011;75523;53.218;6.564;2024-01-27T10:08:52;29.43;;;24.73;;
85154;SDS011;75523;53.218;6.564;2024-01-27T10:11:19;33.33;;;26.83;;
85154;SDS011;75523;53.218;6.564;2024-01-27T10:13:45;33.77;;;24.87;;
85154;SDS011;75523;53.218;6.564;2024-01-27T10:16:18;33.43;;;25.00;;
85154;SDS011;75523;53.218;6.564;2024-01-27T10:18:44;35.70;;;26.60;;
85154;SDS011;75523;53.218;6.564;2024-01-27T10:21:13;30.30;;;26.23;;
85154;SDS011;75523;53.218;6.564;2024-01-27T10:23:44;31.23;;;26.37;;
85154;SDS011;75523;53.218;6.564;2024-01-27T10:26:10;30.43;;;25.27;;
85154;SDS011;75523;53.218;6.564;2024-01-27T10:28:36;28.30;;;25.33;;
85154;SDS011;75523;53.218;6.564;2024-01-27T10:31:11;29.93;;;25.27;;
85154;SDS011;75523;53.218;6.564;2024-01-27T10:33:37;33.57;;;24.27;;
85154;SDS011;75523;53.218;6.564;2024-01-27T10:36:03;27.47;;;24.60;;
85154;SDS011;75523;53.218;6.564;2024-01-27T10:38:36;30.40;;;25.30;;
85154;SDS011;75523;53.218;6.564;2024-01-27T10:41:02;29.37;;;26.10;;
85154;SDS011;75523;53.218;6.564;2024-01-27T10:43:34;28.53;;;23.33;;
85154;SDS011;75523;53.218;6.564;2024-01-27T10:46:01;28.60;;;23.47;;
85154;SDS011;75523;53.218;6.564;2024-01-27T10:48:30;32.80;;;23.97;;
85154;SDS011;75523;53.218;6.564;2024-01-27T10:50:57;31.23;;;23.63;;
85154;SDS011;75523;53.218;6.564;2024-01-27T10:53:24;30.47;;;23.87;;
85154;SDS011;75523;53.218;6.564;2024-01-27T10:55:51;29.63;;;24.00;;
85154;SDS011;75523;53.218;6.564;2024-01-27T10:58:21;26.83;;;23.93;;
85154;SDS011;75523;53.218;6.564;2024-01-27T11:00:50;29.70;;;24.50;;
85154;SDS011;75523;53.218;6.564;2024-01-27T11:03:18;30.73;;;25.23;;
85154;SDS011;75523;53.218;6.564;2024-01-27T11:05:45;28.97;;;24.07;;
85154;SDS011;75523;53.218;6.564;2024-01-27T11:08:12;31.83;;;25.50;;
85154;SDS011;75523;53.218;6.564;2024-01-27T11:10:40;26.93;;;22.30;;
85154;SDS011;75523;53.218;6.564;2024-01-27T11:13:06;28.17;;;23.20;;
85154;SDS011;75523;53.218;6.564;2024-01-27T11:15:33;27.17;;;24.10;;
85154;SDS011;75523;53.218;6.564;2024-01-27T11:17:59;29.17;;;23.83;;
85154;SDS011;75523;53.218;6.564;2024-01-27T11:20:25;31.97;;;25.33;;
85154;SDS011;75523;53.218;6.564;2024-01-27T11:22:52;29.13;;;25.33;;
85154;SDS011;75523;53.218;6.564;2024-01-27T11:25:19;28.03;;;24.90;;
85154;SDS011;75523;53.218;6.564;2024-01-27T11:27:45;29.13;;;25.73;;
85154;SDS011;75523;53.218;6.564;2024-01-27T11:30:29;28.73;;;25.77;;
85154;SDS011;75523;53.218;6.564;2024-01-27T11:33:00;30.87;;;24.77;;
85154;SDS011;75523;53.218;6.564;2024-01-27T11:35:26;29.25;;;24.35;;
85154;SDS011;75523;53.218;6.564;2024-01-27T11:37:52;31.43;;;24.30;;
85154;SDS011;75523;53.218;6.564;2024-01-27T11:40:19;30.80;;;26.27;;
85154;SDS011;75523;53.218;6.564;2024-01-27T11:42:53;27.70;;;23.17;;
85154;SDS011;75523;53.218;6.564;2024-01-27T11:45:22;28.45;;;24.98;;
85154;SDS011;75523;53.218;6.564;2024-01-27T11:47:48;28.97;;;23.10;;
85154;SDS011;75523;53.218;6.564;2024-01-27T11:50:14;26.53;;;22.87;;
85154;SDS011;75523;53.218;6.564;2024-01-27T11:52:42;31.00;;;22.38;;
85154;SDS011;75523;53.218;6.564;2024-01-27T11:55:08;28.97;;;24.00;;
85154;SDS011;75523;53.218;6.564;2024-01-27T11:57:33;27.23;;;22.27;;
85154;SDS011;75523;53.218;6.564;2024-01-27T11:59:59;29.70;;;23.67;;
85154;SDS011;75523;53.218;6.564;2024-01-27T12:02:24;27.03;;;21.97;;
85154;SDS011;75523;53.218;6.564;2024-01-27T12:04:50;28.60;;;22.60;;
85154;SDS011;75523;53.218;6.564;2024-01-27T12:07:17;27.53;;;20.70;;
85154;SDS011;75523;53.218;6.564;2024-01-27T12:09:46;31.10;;;23.37;;
85154;SDS011;75523;53.218;6.564;2024-01-27T12:12:12;25.80;;;23.17;;
85154;SDS011;75523;53.218;6.564;2024-01-27T12:14:40;26.80;;;21.37;;
85154;SDS011;75523;53.218;6.564;2024-01-27T12:17:09;27.20;;;22.90;;
85154;SDS011;75523;53.218;6.564;2024-01-27T12:19:38;28.00;;;22.67;;
85154;SDS011;75523;53.218;6.564;2024-01-27T12:22:18;27.10;;;22.77;;
85154;SDS011;75523;53.218;6.564;2024-01-27T12:24:51;24.03;;;20.63;;
85154;SDS011;75523;53.218;6.564;2024-01-27T12:27:16;25.10;;;21.40;;
85154;SDS011;75523;53.218;6.564;2024-01-27T12:29:42;25.83;;;21.43;;
85154;SDS011;75523;53.218;6.564;2024-01-27T12:32:08;26.07;;;20.57;;
85154;SDS011;75523;53.218;6.564;2024-01-27T12:34:39;26.83;;;21.53;;
85154;SDS011;75523;53.218;6.564;2024-01-27T12:37:05;30.37;;;22.47;;
85154;SDS011;75523;53.218;6.564;2024-01-27T12:39:33;23.20;;;20.83;;
85154;SDS011;75523;53.218;6.564;2024-01-27T12:41:58;25.07;;;19.37;;
85154;SDS011;75523;53.218;6.564;2024-01-27T12:44:26;24.57;;;21.93;;
85154;SDS011;75523;53.218;6.564;2024-01-27T12:46:53;24.63;;;22.00;;
85154;SDS011;75523;53.218;6.564;2024-01-27T12:49:23;28.53;;;21.70;;
85154;SDS011;75523;53.218;6.564;2024-01-27T12:51:48;29.53;;;22.40;;
85154;SDS011;75523;53.218;6.564;2024-01-27T12:54:15;27.67;;;22.67;;
85154;SDS011;75523;53.218;6.564;2024-01-27T12:56:41;24.85;;;22.27;;
85154;SDS011;75523;53.218;6.564;2024-01-27T12:59:09;24.60;;;20.63;;
85154;SDS011;75523;53.218;6.564;2024-01-27T13:01:34;25.60;;;21.93;;
85154;SDS011;75523;53.218;6.564;2024-01-27T13:04:00;23.90;;;20.23;;
85154;SDS011;75523;53.218;6.564;2024-01-27T13:06:27;27.67;;;22.23;;
85154;SDS011;75523;53.218;6.564;2024-01-27T13:08:52;26.37;;;22.10;;
85154;SDS011;75523;53.218;6.564;2024-01-27T13:11:19;25.67;;;21.80;;
85154;SDS011;75523;53.218;6.564;2024-01-27T13:13:46;25.20;;;22.60;;
85154;SDS011;75523;53.218;6.564;2024-01-27T13:16:12;28.73;;;22.57;;
85154;SDS011;75523;53.218;6.564;2024-01-27T13:18:37;32.50;;;23.93;;
85154;SDS011;75523;53.218;6.564;2024-01-27T13:21:03;26.57;;;21.37;;
85154;SDS011;75523;53.218;6.564;2024-01-27T13:23:31;28.10;;;22.20;;
85154;SDS011;75523;53.218;6.564;2024-01-27T13:25:57;30.80;;;23.27;;
85154;SDS011;75523;53.218;6.564;2024-01-27T13:28:22;28.00;;;21.60;;
85154;SDS011;75523;53.218;6.564;2024-01-27T13:30:48;27.37;;;20.87;;
85154;SDS011;75523;53.218;6.564;2024-01-27T13:33:15;25.93;;;22.07;;
85154;SDS011;75523;53.218;6.564;2024-01-27T13:35:41;24.13;;;20.90;;
85154;SDS011;75523;53.218;6.564;2024-01-27T13:38:11;28.40;;;22.70;;
85154;SDS011;75523;53.218;6.564;2024-01-27T13:40:40;27.67;;;24.73;;
85154;SDS011;75523;53.218;6.564;2024-01-27T13:43:07;26.20;;;22.07;;
85154;SDS011;75523;53.218;6.564;2024-01-27T13:45:33;28.47;;;21.47;;
85154;SDS011;75523;53.218;6.564;2024-01-27T13:47:58;29.43;;;23.80;;
85154;SDS011;75523;53.218;6.564;2024-01-27T13:50:24;29.40;;;21.90;;
85154;SDS011;75523;53.218;6.564;2024-01-27T13:52:55;28.37;;;20.10;;
85154;SDS011;75523;53.218;6.564;2024-01-27T13:55:21;26.37;;;22.50;;
85154;SDS011;75523;53.218;6.564;2024-01-27T13:57:48;25.23;;;20.77;;
85154;SDS011;75523;53.218;6.564;2024-01-27T14:00:13;26.00;;;22.00;;
85154;SDS011;75523;53.218;6.564;2024-01-27T14:02:41;25.17;;;21.90;;
85154;SDS011;75523;53.218;6.564;2024-01-27T14:05:07;26.00;;;20.90;;
85154;SDS011;75523;53.218;6.564;2024-01-27T14:07:33;26.00;;;23.00;;
85154;SDS011;75523;53.218;6.564;2024-01-27T14:09:59;26.83;;;23.23;;
85154;SDS011;75523;53.218;6.564;2024-01-27T14:12:26;25.53;;;21.63;;
85154;SDS011;75523;53.218;6.564;2024-01-27T14:14:51;24.73;;;22.20;;
85154;SDS011;75523;53.218;6.564;2024-01-27T14:17:17;27.10;;;22.07;;
85154;SDS011;75523;53.218;6.564;2024-01-27T14:19:45;29.25;;;23.73;;
85154;SDS011;75523;53.218;6.564;2024-01-27T14:22:12;24.53;;;21.87;;